createdAt,value
2018-11-21T00:00:56.938Z,49.23
2018-11-21T00:03:26.328Z,45.83
2018-11-21T00:05:55.430Z,46.73
2018-11-21T00:08:24.380Z,45.83
2018-11-21T00:10:53.566Z,48.67
2018-11-21T00:13:22.919Z,49.50
2018-11-21T00:15:52.802Z,45.27
2018-11-21T00:18:21.748Z,44.73
2018-11-21T00:20:50.994Z,49.47
2018-11-21T00:23:20.035Z,40.97
2018-11-21T00:25:49.018Z,45.67
2018-11-21T00:28:19.954Z,43.03
2018-11-21T00:30:49.237Z,48.40
2018-11-21T00:33:18.968Z,41.73
2018-11-21T00:35:47.998Z,46.17
2018-11-21T00:38:17.369Z,44.83
2018-11-21T00:40:46.403Z,53.17
2018-11-21T00:43:15.370Z,48.07
2018-11-21T00:45:44.689Z,47.73
2018-11-21T00:48:13.639Z,42.57
2018-11-21T00:50:42.714Z,38.83
2018-11-21T00:53:11.708Z,48.97
2018-11-21T00:55:41.330Z,57.17
2018-11-21T00:58:10.305Z,51.90
2018-11-21T01:00:39.932Z,45.73
2018-11-21T01:03:09.277Z,39.33
2018-11-21T01:05:38.246Z,40.13
2018-11-21T01:08:07.412Z,33.50
2018-11-21T01:10:36.438Z,38.37
2018-11-21T01:13:05.728Z,38.47
2018-11-21T01:15:34.970Z,40.97
2018-11-21T01:18:05.599Z,38.03
2018-11-21T01:20:34.697Z,41.10
2018-11-21T01:23:04.135Z,54.07
2018-11-21T01:25:33.566Z,42.17
2018-11-21T01:28:03.045Z,49.97
2018-11-21T01:30:32.103Z,59.50
2018-11-21T01:33:01.188Z,54.37
2018-11-21T01:35:30.261Z,67.33
2018-11-21T01:37:59.677Z,60.10
2018-11-21T01:40:28.704Z,61.07
2018-11-21T01:42:57.664Z,56.63
2018-11-21T01:45:27.944Z,60.13
2018-11-21T01:47:56.911Z,48.37
2018-11-21T01:50:26.097Z,47.13
2018-11-21T01:52:55.474Z,48.63
2018-11-21T01:55:24.428Z,47.97
2018-11-21T01:57:53.445Z,43.40
2018-11-21T02:00:22.440Z,41.63
2018-11-21T02:02:52.609Z,47.47
2018-11-21T02:05:21.591Z,49.17
2018-11-21T02:07:50.678Z,54.60
2018-11-21T02:10:20.492Z,59.27
2018-11-21T02:12:49.459Z,56.57
2018-11-21T02:15:18.723Z,54.50
2018-11-21T02:17:47.732Z,61.13
2018-11-21T02:20:16.976Z,58.03
2018-11-21T02:22:45.902Z,52.70
2018-11-21T02:25:15.177Z,59.73
2018-11-21T02:27:44.307Z,49.43
2018-11-21T02:30:13.409Z,51.27
2018-11-21T02:32:42.380Z,54.63
2018-11-21T02:35:11.347Z,48.93
2018-11-21T02:37:40.628Z,51.97
2018-11-21T02:40:09.604Z,52.60
2018-11-21T02:42:38.733Z,50.90
2018-11-21T02:45:07.756Z,46.90
2018-11-21T02:47:36.680Z,46.40
2018-11-21T02:50:06.325Z,50.20
2018-11-21T02:52:35.250Z,54.93
2018-11-21T02:55:04.531Z,64.37
2018-11-21T02:57:34.767Z,59.60
2018-11-21T03:00:07.652Z,57.57
2018-11-21T03:02:36.602Z,54.00
2018-11-21T03:05:06.223Z,52.70
2018-11-21T03:07:35.204Z,51.23
2018-11-21T03:10:05.160Z,48.10
2018-11-21T03:12:34.213Z,57.10
2018-11-21T03:15:03.155Z,63.43
2018-11-21T03:17:32.525Z,58.23
2018-11-21T03:20:01.506Z,57.13
2018-11-21T03:22:32.259Z,57.00
2018-11-21T03:25:01.296Z,58.83
2018-11-21T03:27:30.480Z,66.23
2018-11-21T03:29:59.448Z,59.67
2018-11-21T03:32:28.414Z,56.23
2018-11-21T03:34:57.911Z,53.37
2018-11-21T03:37:27.110Z,59.50
2018-11-21T03:39:56.734Z,56.87
2018-11-21T03:42:25.683Z,57.13
2018-11-21T03:44:55.613Z,57.27
2018-11-21T03:47:24.543Z,61.00
2018-11-21T03:49:53.898Z,58.27
2018-11-21T03:52:23.635Z,52.17
2018-11-21T03:54:52.665Z,48.03
2018-11-21T03:57:21.735Z,48.70
2018-11-21T03:59:50.757Z,50.70
2018-11-21T04:02:20.776Z,65.17
2018-11-21T04:04:49.746Z,62.43
2018-11-21T04:07:19.471Z,60.33
2018-11-21T04:09:48.392Z,55.27
2018-11-21T04:12:17.450Z,54.57
2018-11-21T04:14:46.471Z,56.93
2018-11-21T04:17:15.451Z,54.57
2018-11-21T04:19:45.748Z,56.00
2018-11-21T04:22:15.123Z,63.00
2018-11-21T04:24:44.143Z,59.73
2018-11-21T04:27:14.052Z,50.87
2018-11-21T04:29:43.021Z,46.83
2018-11-21T04:32:12.130Z,50.43
2018-11-21T04:34:41.513Z,53.77
2018-11-21T04:37:10.589Z,56.77
2018-11-21T04:39:39.551Z,49.97
2018-11-21T04:42:08.591Z,59.07
2018-11-21T04:44:37.743Z,63.17
2018-11-21T04:47:07.232Z,51.27
2018-11-21T04:49:36.210Z,47.27
2018-11-21T04:52:06.270Z,46.10
2018-11-21T04:54:35.776Z,61.37
2018-11-21T04:57:05.227Z,51.93
2018-11-21T04:59:34.213Z,44.20
2018-11-21T05:02:03.296Z,43.97
2018-11-21T05:04:32.616Z,47.03
2018-11-21T05:07:02.270Z,59.80
2018-11-21T05:09:31.940Z,48.97
2018-11-21T05:12:01.797Z,52.30
2018-11-21T05:14:30.746Z,58.33
2018-11-21T05:17:01.065Z,65.17
2018-11-21T05:19:31.339Z,57.03
2018-11-21T05:22:03.685Z,58.37
2018-11-21T05:24:33.381Z,67.07
2018-11-21T05:27:03.512Z,57.30
2018-11-21T05:29:34.341Z,64.20
2018-11-21T05:32:03.673Z,58.67
2018-11-21T05:34:33.325Z,57.63
2018-11-21T05:37:06.018Z,56.10
2018-11-21T05:39:34.085Z,55.57
2018-11-21T05:42:03.082Z,56.23
2018-11-21T05:44:32.077Z,56.23
2018-11-21T05:47:03.301Z,56.60
2018-11-21T05:49:32.245Z,70.70
2018-11-21T05:52:01.342Z,66.33
2018-11-21T05:54:30.720Z,60.43
2018-11-21T05:57:00.124Z,56.17
2018-11-21T05:59:29.642Z,58.87
2018-11-21T06:01:59.066Z,56.67
2018-11-21T06:04:30.860Z,54.97
2018-11-21T06:06:58.116Z,57.70
2018-11-21T06:09:27.381Z,51.93
2018-11-21T06:11:57.319Z,53.37
2018-11-21T06:14:26.782Z,56.33
2018-11-21T06:16:56.083Z,51.13
2018-11-21T06:19:27.349Z,50.47
2018-11-21T06:21:57.806Z,50.07
2018-11-21T06:24:26.953Z,50.20
2018-11-21T06:27:00.735Z,49.87
2018-11-21T06:29:29.957Z,48.93
2018-11-21T06:31:59.759Z,48.40
2018-11-21T06:34:32.933Z,52.43
2018-11-21T06:37:01.243Z,51.33
2018-11-21T06:39:30.612Z,47.83
2018-11-21T06:41:59.624Z,48.50
2018-11-21T06:44:28.741Z,54.40
2018-11-21T06:46:57.851Z,50.50
2018-11-21T06:49:26.886Z,51.37
2018-11-21T06:51:56.310Z,52.37
2018-11-21T06:54:25.766Z,49.13
2018-11-21T06:56:54.757Z,46.70
2018-11-21T06:59:25.136Z,48.47
2018-11-21T07:01:54.220Z,47.27
2018-11-21T07:04:24.063Z,52.40
2018-11-21T07:06:53.166Z,47.57
2018-11-21T07:09:22.213Z,41.00
2018-11-21T07:11:51.785Z,43.33
2018-11-21T07:14:20.793Z,42.07
2018-11-21T07:16:49.767Z,42.10
2018-11-21T07:19:18.881Z,46.37
2018-11-21T07:21:47.929Z,57.00
2018-11-21T07:24:17.504Z,65.63
2018-11-21T07:26:47.387Z,53.93
2018-11-21T07:29:16.481Z,40.40
2018-11-21T07:31:45.642Z,45.17
2018-11-21T07:34:14.755Z,52.53
2018-11-21T07:36:48.447Z,50.60
2018-11-21T07:39:17.668Z,45.33
2018-11-21T07:41:47.076Z,38.27
2018-11-21T07:44:16.241Z,40.10
2018-11-21T07:46:45.427Z,35.70
2018-11-21T07:49:14.451Z,35.80
2018-11-21T07:51:43.558Z,36.43
2018-11-21T07:54:12.795Z,39.43
2018-11-21T07:57:22.323Z,41.60
2018-11-21T08:00:45.543Z,41.90
2018-11-21T08:03:15.257Z,44.73
2018-11-21T08:05:46.834Z,58.23
2018-11-21T08:08:54.281Z,49.23
2018-11-21T08:11:41.598Z,46.43
2018-11-21T08:14:32.738Z,36.63
2018-11-21T08:17:16.445Z,36.37
2018-11-21T08:20:04.923Z,29.93
2018-11-21T08:22:42.515Z,34.33
2018-11-21T08:25:30.619Z,34.40
2018-11-21T08:28:13.072Z,33.87
2018-11-21T08:30:42.281Z,33.07
2018-11-21T08:33:11.757Z,27.53
2018-11-21T08:35:41.186Z,30.57
2018-11-21T08:38:10.247Z,28.43
2018-11-21T08:40:39.189Z,29.97
2018-11-21T08:43:08.397Z,26.43
2018-11-21T08:45:37.411Z,30.03
2018-11-21T08:48:07.646Z,26.93
2018-11-21T08:50:36.795Z,29.47
2018-11-21T08:53:07.056Z,28.00
2018-11-21T08:55:36.965Z,25.80
2018-11-21T08:58:07.284Z,27.73
2018-11-21T09:00:36.354Z,29.50
2018-11-21T09:03:06.442Z,26.77
2018-11-21T09:05:35.563Z,27.60
2018-11-21T09:08:06.365Z,27.57
2018-11-21T09:13:03.844Z,28.23
2018-11-21T09:15:32.845Z,29.13
2018-11-21T09:18:01.960Z,27.20
2018-11-21T09:20:31.609Z,24.87
2018-11-21T09:23:00.649Z,26.77
2018-11-21T09:25:29.662Z,24.67
2018-11-21T09:27:58.973Z,24.97
2018-11-21T09:30:27.983Z,28.27
2018-11-21T09:32:57.914Z,25.90
2018-11-21T09:35:26.914Z,32.13
2018-11-21T09:37:56.677Z,52.97
2018-11-21T09:40:25.667Z,32.93
2018-11-21T09:42:56.071Z,30.77
2018-11-21T09:45:25.644Z,21.63
2018-11-21T09:47:54.675Z,23.13
2018-11-21T09:50:31.246Z,20.33
2018-11-21T09:53:01.346Z,24.50
2018-11-21T09:55:30.556Z,22.70
2018-11-21T09:57:59.703Z,15.53
2018-11-21T10:01:05.594Z,22.93
2018-11-21T10:03:36.857Z,22.80
2018-11-21T10:06:26.169Z,17.80
2018-11-21T10:08:57.434Z,18.60
2018-11-21T10:11:26.556Z,20.87
2018-11-21T10:13:56.601Z,20.03
2018-11-21T10:16:25.576Z,20.67
2018-11-21T10:18:56.419Z,20.33
2018-11-21T10:21:26.984Z,19.33
2018-11-21T10:23:56.294Z,22.17
2018-11-21T10:26:25.478Z,20.23
2018-11-21T10:28:55.026Z,21.33
2018-11-21T10:31:24.207Z,18.90
2018-11-21T10:33:53.299Z,19.83
2018-11-21T10:36:22.366Z,23.43
2018-11-21T10:38:51.347Z,19.83
2018-11-21T10:41:20.575Z,19.47
2018-11-21T10:43:49.526Z,19.50
2018-11-21T10:46:18.490Z,15.33
2018-11-21T10:48:47.524Z,17.33
2018-11-21T10:51:16.555Z,16.03
2018-11-21T10:53:46.234Z,15.30
2018-11-21T10:56:15.361Z,16.90
2018-11-21T10:58:45.339Z,16.87
2018-11-21T11:01:32.386Z,18.00
2018-11-21T11:04:21.706Z,15.57
2018-11-21T11:07:13.016Z,15.73
2018-11-21T11:10:00.709Z,17.63
2018-11-21T11:12:48.914Z,14.53
2018-11-21T11:15:36.316Z,14.90
2018-11-21T11:18:29.154Z,16.00
2018-11-21T11:21:17.122Z,14.63
2018-11-21T11:24:04.205Z,14.40
2018-11-21T11:27:05.119Z,14.50
2018-11-21T11:30:05.630Z,15.67
2018-11-21T11:32:47.767Z,14.47
2018-11-21T11:35:26.102Z,14.50
2018-11-21T11:38:11.938Z,14.27
2018-11-21T11:40:58.819Z,14.47
2018-11-21T11:43:40.498Z,14.47
2018-11-21T11:46:34.521Z,15.10
2018-11-21T11:49:23.794Z,15.03
2018-11-21T11:52:12.053Z,13.80
2018-11-21T11:55:04.289Z,13.60
2018-11-21T11:57:48.019Z,13.70
2018-11-21T12:00:37.335Z,15.57
2018-11-21T12:03:37.691Z,15.90
2018-11-21T12:06:27.075Z,14.93
2018-11-21T12:09:26.799Z,13.97
2018-11-21T12:12:10.549Z,15.57
2018-11-21T12:14:58.704Z,14.57
2018-11-21T12:17:50.540Z,14.17
2018-11-21T12:20:47.595Z,16.33
2018-11-21T12:23:25.674Z,14.43
2018-11-21T12:26:12.655Z,14.57
2018-11-21T12:28:58.401Z,17.93
2018-11-21T12:31:46.996Z,18.67
2018-11-21T12:34:50.903Z,17.03
2018-11-21T12:37:37.819Z,15.13
2018-11-21T12:40:26.003Z,15.03
2018-11-21T12:43:13.464Z,16.67
2018-11-21T12:46:16.791Z,19.20
2018-11-21T12:49:01.773Z,18.73
2018-11-21T12:52:05.374Z,16.23
2018-11-21T12:54:49.401Z,18.47
2018-11-21T12:57:35.482Z,19.53
2018-11-21T13:00:15.517Z,19.27
2018-11-21T13:03:03.712Z,19.80
2018-11-21T13:06:00.579Z,19.50
2018-11-21T13:09:02.074Z,21.57
2018-11-21T13:11:53.035Z,19.10
2018-11-21T13:15:00.413Z,15.70
2018-11-21T13:18:00.695Z,20.00
2018-11-21T13:20:55.778Z,19.70
2018-11-21T13:23:37.659Z,17.03
2018-11-21T13:26:42.043Z,19.60
2018-11-21T13:29:39.513Z,19.47
2018-11-21T13:32:30.871Z,19.50
2018-11-21T13:35:20.914Z,16.93
2018-11-21T13:38:13.071Z,17.03
2018-11-21T13:40:59.668Z,16.57
2018-11-21T13:43:47.569Z,18.40
2018-11-21T13:46:36.513Z,20.50
2018-11-21T13:49:28.425Z,20.97
2018-11-21T13:52:04.563Z,22.17
2018-11-21T13:55:05.118Z,18.73
2018-11-21T13:57:34.603Z,18.83
2018-11-21T14:00:04.296Z,20.77
2018-11-21T14:02:33.725Z,18.60
2018-11-21T14:05:03.513Z,18.93
2018-11-21T14:07:32.568Z,18.60
2018-11-21T14:10:02.286Z,20.23
2018-11-21T14:12:30.928Z,19.20
2018-11-21T14:14:59.996Z,19.67
2018-11-21T14:17:29.425Z,21.73
2018-11-21T14:19:58.521Z,20.97
2018-11-21T14:22:27.715Z,19.10
2018-11-21T14:24:56.802Z,18.00
2018-11-21T14:27:26.616Z,17.93
2018-11-21T14:29:55.829Z,19.50
2018-11-21T14:32:25.261Z,19.37
2018-11-21T14:34:54.466Z,20.13
2018-11-21T14:37:23.460Z,20.33
2018-11-21T14:39:52.551Z,18.37
2018-11-21T14:42:21.922Z,19.57
2018-11-21T14:44:50.932Z,24.33
2018-11-21T14:47:19.932Z,22.40
2018-11-21T14:49:53.407Z,20.70
2018-11-21T14:52:22.431Z,21.20
2018-11-21T14:54:52.093Z,17.43
2018-11-21T14:57:21.545Z,20.50
2018-11-21T14:59:51.215Z,19.47
2018-11-21T15:02:20.246Z,19.10
2018-11-21T15:04:49.311Z,19.27
2018-11-21T15:07:18.646Z,20.47
2018-11-21T15:09:47.630Z,22.03
2018-11-21T15:12:16.638Z,22.30
2018-11-21T15:14:45.651Z,20.53
2018-11-21T15:17:15.052Z,21.43
2018-11-21T15:19:44.047Z,24.27
2018-11-21T15:22:14.419Z,21.03
2018-11-21T15:24:43.394Z,20.83
2018-11-21T15:27:12.931Z,25.53
2018-11-21T15:29:41.984Z,26.80
2018-11-21T15:32:11.455Z,22.60
2018-11-21T15:34:40.456Z,23.43
2018-11-21T15:37:09.518Z,24.43
2018-11-21T15:39:38.606Z,25.40
2018-11-21T15:42:07.590Z,24.87
2018-11-21T15:44:37.298Z,27.30
2018-11-21T15:47:06.545Z,27.73
2018-11-21T15:49:36.338Z,25.90
2018-11-21T15:52:05.464Z,27.80
2018-11-21T15:54:34.471Z,26.40
2018-11-21T15:57:03.485Z,26.50
2018-11-21T15:59:32.533Z,28.00
2018-11-21T16:02:02.123Z,26.90
2018-11-21T16:04:31.094Z,27.20
2018-11-21T16:07:00.278Z,29.83
2018-11-21T16:09:29.288Z,30.50
2018-11-21T16:11:58.287Z,26.20
2018-11-21T16:14:27.486Z,30.90
2018-11-21T16:16:56.498Z,31.83
2018-11-21T16:19:27.699Z,30.17
2018-11-21T16:21:56.657Z,28.67
2018-11-21T16:24:25.909Z,30.33
2018-11-21T16:26:55.325Z,30.40
2018-11-21T16:29:24.323Z,30.00
2018-11-21T16:31:53.274Z,29.37
2018-11-21T16:34:23.072Z,31.23
2018-11-21T16:36:53.096Z,32.67
2018-11-21T16:39:22.080Z,34.83
2018-11-21T16:41:52.058Z,31.87
2018-11-21T16:44:21.014Z,31.83
2018-11-21T16:46:50.148Z,27.50
2018-11-21T16:49:19.358Z,32.03
2018-11-21T16:51:48.448Z,28.87
2018-11-21T16:54:17.413Z,28.70
2018-11-21T16:56:46.418Z,27.80
2018-11-21T16:59:15.403Z,30.10
2018-11-21T17:01:44.350Z,30.70
2018-11-21T17:04:13.486Z,32.03
2018-11-21T17:06:42.476Z,29.30
2018-11-21T17:09:12.987Z,35.37
2018-11-21T17:11:41.999Z,34.70
2018-11-21T17:14:11.320Z,41.00
2018-11-21T17:16:40.775Z,32.17
2018-11-21T17:19:09.748Z,32.30
2018-11-21T17:21:39.114Z,31.40
2018-11-21T17:24:08.205Z,29.93
2018-11-21T17:26:38.671Z,32.10
2018-11-21T17:29:08.859Z,32.30
2018-11-21T17:31:37.744Z,32.90
2018-11-21T17:34:06.807Z,34.33
2018-11-21T17:36:36.407Z,32.60
2018-11-21T17:39:09.438Z,33.47
2018-11-21T17:41:42.271Z,41.83
2018-11-21T17:44:09.922Z,49.13
2018-11-21T17:46:41.492Z,52.50
2018-11-21T17:49:15.621Z,55.87
2018-11-21T17:51:44.285Z,46.57
2018-11-21T17:54:15.641Z,42.93
2018-11-21T17:56:44.783Z,42.03
2018-11-21T17:59:14.251Z,40.23
2018-11-21T18:01:43.241Z,38.73
2018-11-21T18:04:12.346Z,44.83
2018-11-21T18:06:41.462Z,45.03
2018-11-21T18:09:12.000Z,44.73
2018-11-21T18:11:41.417Z,48.23
2018-11-21T18:14:10.502Z,44.90
2018-11-21T18:16:39.591Z,44.60
2018-11-21T18:19:08.760Z,47.10
2018-11-21T18:21:38.676Z,51.43
2018-11-21T18:24:08.018Z,47.83
2018-11-21T18:26:37.197Z,49.87
2018-11-21T18:29:11.596Z,52.90
2018-11-21T18:31:36.103Z,52.90
2018-11-21T18:34:05.108Z,50.70
2018-11-21T18:36:34.812Z,53.97
2018-11-21T18:39:05.581Z,56.57
2018-11-21T18:41:34.616Z,57.00
2018-11-21T18:44:03.635Z,50.23
2018-11-21T18:46:32.694Z,54.97
2018-11-21T18:49:02.241Z,53.20
2018-11-21T18:54:00.841Z,55.53
2018-11-21T18:56:42.557Z,55.23
2018-11-21T18:59:18.016Z,59.83
2018-11-21T19:01:47.296Z,61.00
2018-11-21T19:04:17.683Z,56.67
2018-11-21T19:06:46.878Z,63.80
2018-11-21T19:09:15.922Z,61.30
2018-11-21T19:11:44.935Z,55.50
2018-11-21T19:14:13.905Z,58.30
2018-11-21T19:16:43.297Z,60.33
2018-11-21T19:19:12.316Z,62.50
2018-11-21T19:21:41.945Z,60.33
2018-11-21T19:24:11.241Z,62.13
2018-11-21T19:26:40.252Z,65.27
2018-11-21T19:29:09.424Z,62.87
2018-11-21T19:31:38.770Z,59.13
2018-11-21T19:34:07.860Z,61.13
2018-11-21T19:36:37.352Z,61.97
2018-11-21T19:39:11.020Z,60.67
2018-11-21T19:41:40.133Z,58.30
2018-11-21T19:44:09.507Z,61.10
2018-11-21T19:46:38.574Z,63.13
2018-11-21T19:49:08.301Z,61.37
2018-11-21T19:51:37.296Z,66.13
2018-11-21T19:54:06.284Z,61.57
2018-11-21T19:56:35.426Z,68.00
2018-11-21T19:59:04.430Z,68.20
2018-11-21T20:01:33.404Z,66.20
2018-11-21T20:04:03.017Z,66.00
2018-11-21T20:06:32.446Z,65.37
2018-11-21T20:09:01.502Z,59.03
2018-11-21T20:11:31.017Z,65.57
2018-11-21T20:14:00.141Z,63.97
2018-11-21T20:16:29.124Z,66.77
2018-11-21T20:18:58.107Z,66.20
2018-11-21T20:21:27.256Z,65.43
2018-11-21T20:23:56.545Z,59.27
2018-11-21T20:26:25.706Z,65.87
2018-11-21T20:28:54.623Z,64.03
2018-11-21T20:31:23.571Z,62.80
2018-11-21T20:33:52.555Z,62.23
2018-11-21T20:36:21.496Z,67.87
2018-11-21T20:38:50.819Z,61.30
2018-11-21T20:41:22.123Z,66.13
2018-11-21T20:43:51.747Z,67.97
2018-11-21T20:46:21.593Z,63.57
2018-11-21T20:48:50.898Z,65.43
2018-11-21T20:51:20.376Z,63.00
2018-11-21T20:53:49.645Z,59.27
2018-11-21T20:56:18.645Z,64.10
2018-11-21T20:58:47.978Z,69.87
2018-11-21T21:01:16.926Z,66.10
2018-11-21T21:03:47.343Z,61.90
2018-11-21T21:06:16.401Z,60.40
2018-11-21T21:08:45.702Z,65.77
2018-11-21T21:11:14.989Z,63.63
2018-11-21T21:13:43.923Z,62.87
2018-11-21T21:16:12.948Z,56.20
2018-11-21T21:18:41.961Z,60.03
2018-11-21T21:21:15.660Z,60.53
2018-11-21T21:23:39.937Z,59.87
2018-11-21T21:26:09.344Z,56.33
2018-11-21T21:28:38.902Z,60.20
2018-11-21T21:31:07.939Z,61.17
2018-11-21T21:33:36.905Z,62.47
2018-11-21T21:36:06.731Z,63.73
2018-11-21T21:38:35.819Z,58.20
2018-11-21T21:41:04.942Z,62.40
2018-11-21T21:43:34.118Z,61.97
2018-11-21T21:46:07.759Z,60.27
2018-11-21T21:48:32.113Z,62.10
2018-11-21T21:51:01.084Z,56.43
